KASD

Slidell Airport

Slidell, Louisiana, USA
METAR KASD 200453Z AUTO 00000KT 10SM CLR 24/23 A2997 RMK AO2 SLP148 T02390228 TSNO
Observed Flight Rules
Jun-20 @ 04:53 UTC (55 minutes ago) Visual Flight Rules
Visibility Clouds
10 miles
  • Clear skies
Temperatures Readings
Current 24°C / 75°F
Dewpoint 23°C / 73°F
Humidity 94%
Altimeter 29.97" Hg
Pressure 1014.8 hPa
Elevation 9
METAR KASD 200453Z AUTO 00000KT 10SM CLR 24/23 A2997 RMK AO2 SLP148 T02390228 TSNO
Observed Flight Rules
Jun-20 @ 04:53 UTC
(55 minutes ago)
VFR
Clouds
  • Clear skies
Temperature Dewpoint
24°C / 75°F 23°C / 73°F
Humidity Altimeter Pressure
94% 29.97" Hg 1014.8 hPa